»·PEaware :: N522PM KEUG-KPDX

N522PM :: KEUG-KPDX

FLIGHT INFORMATION

Flight Status: Arrived
Operator: Privately registered:
United States
More flights under this callsign
Pilot: Bruce B. (6887)
Aircraft: BEECH AIRCRAFT BONANZA
(BE36)
More flights by this aircraft type
Origin: KEUG Mahlon Sweet
United States
Destination: KPDX Portland Intl
United States
More flights between these airports :: More routes between these airports
Route: +DIRECT
File this flight plan on PilotEdge
Remarks:
Altitude:
(Current/Filed)
5,500ft
Speed:
(Current/Filed)
160kts
Departed: 20-Dec-17 03:52 PM
Arrived: 20-Dec-17 04:34 PM
Distance/Time
Traveled:
92nm/0:41
Distance/Time
To Go:
Arrived

Flight Plot

Page will automatically refresh every two minutes.

Flight plan parsing failed; only flown route is shown


Map Options




Map Legend


Flown Route
Filed Route
Departure Airport
Arrival Airport
Navaid (VOR, NDB)
Fix

Horizontal Profiles

Position Reports

Time Latitude Longitude Heading Altitude Ground
Speed
20-Dec-17 15:38 44.117544 -123.215433 38 373ft 0kts
20-Dec-17 15:39 44.117544 -123.215433 38 373ft 0kts
20-Dec-17 15:40 44.117544 -123.215433 38 373ft 0kts
20-Dec-17 15:41 44.117544 -123.215433 38 373ft 0kts
20-Dec-17 15:42 44.117544 -123.215433 38 373ft 0kts
20-Dec-17 15:43 44.117544 -123.215433 38 373ft 0kts
20-Dec-17 15:44 44.117544 -123.215433 38 373ft 0kts
20-Dec-17 15:45 44.117544 -123.215433 38 373ft 0kts
20-Dec-17 15:46 44.117544 -123.215433 38 373ft 0kts
20-Dec-17 15:47 44.117544 -123.215433 38 373ft 0kts
20-Dec-17 15:48 44.117544 -123.215433 38 373ft 0kts
20-Dec-17 15:49 44.117378 -123.215584 13 373ft 2kts
20-Dec-17 15:50 44.119007 -123.215772 314 373ft 8kts
20-Dec-17 15:51 44.121029 -123.216621 275 373ft 11kts
20-Dec-17 15:52 44.124609 -123.217200 358 373ft 14kts
20-Dec-17 15:53 44.130039 -123.217262 0 373ft 27kts
20-Dec-17 15:54 44.135408 -123.217989 262 373ft 0kts
20-Dec-17 15:55 44.135408 -123.217990 262 373ft 0kts
20-Dec-17 15:56 44.135408 -123.217991 262 373ft 0kts
20-Dec-17 15:57 44.134706 -123.219144 177 373ft 20kts
20-Dec-17 15:58 44.116307 -123.231382 274 1309ft 115kts
20-Dec-17 15:59 44.148363 -123.242389 1 2583ft 118kts
20-Dec-17 16:00 44.179824 -123.239240 12 3968ft 111kts
20-Dec-17 16:01 44.209035 -123.223037 11 5035ft 118kts
20-Dec-17 16:02 44.242548 -123.206489 17 5502ft 141kts
20-Dec-17 16:03 44.282775 -123.191073 11 5517ft 155kts
20-Dec-17 16:04 44.325233 -123.177408 7 5502ft 156kts
20-Dec-17 16:05 44.368020 -123.165497 6 5497ft 159kts
20-Dec-17 16:06 44.412793 -123.153740 7 4928ft 165kts
20-Dec-17 16:07 44.457970 -123.142756 7 4268ft 164kts
20-Dec-17 16:08 44.501368 -123.132793 7 3621ft 156kts
20-Dec-17 16:09 44.541630 -123.119132 18 3511ft 143kts
20-Dec-17 16:10 44.578662 -123.101321 16 3508ft 138kts
20-Dec-17 16:11 44.615012 -123.083664 16 3506ft 138kts
20-Dec-17 16:12 44.652020 -123.065519 16 3506ft 142kts
20-Dec-17 16:13 44.689417 -123.047095 17 3506ft 144kts
20-Dec-17 16:14 44.727784 -123.028060 17 3519ft 146kts
20-Dec-17 16:15 44.766329 -123.009111 17 3540ft 147kts
20-Dec-17 16:16 44.805159 -122.989956 17 3542ft 150kts
20-Dec-17 16:17 44.844278 -122.968527 20 3538ft 151kts
20-Dec-17 16:18 44.882846 -122.944008 24 3539ft 152kts
20-Dec-17 16:19 44.920623 -122.917588 24 3540ft 151kts
20-Dec-17 16:20 44.958501 -122.891239 24 3540ft 151kts
20-Dec-17 16:21 44.996669 -122.866265 22 3542ft 151kts
20-Dec-17 16:22 45.035088 -122.842124 21 3544ft 151kts
20-Dec-17 16:23 45.073658 -122.818013 21 3547ft 151kts
20-Dec-17 16:24 45.112173 -122.794171 20 3550ft 151kts
20-Dec-17 16:25 45.151015 -122.771496 20 3554ft 151kts
20-Dec-17 16:26 45.190096 -122.748820 20 3559ft 152kts
20-Dec-17 16:27 45.229695 -122.726322 20 3559ft 154kts
20-Dec-17 16:28 45.269911 -122.703640 20 3512ft 155kts
20-Dec-17 16:29 45.309900 -122.681175 19 3511ft 154kts
20-Dec-17 16:30 45.349844 -122.658855 19 3509ft 154kts
20-Dec-17 16:31 45.389860 -122.636234 21 3506ft 154kts
20-Dec-17 16:32 45.426555 -122.613904 21 3341ft 128kts
20-Dec-17 16:33 45.453705 -122.596042 21 3161ft 104kts
20-Dec-17 16:34 45.478991 -122.578943 28 2794ft 89kts
20-Dec-17 16:35 45.500965 -122.561594 23 2043ft 86kts
20-Dec-17 16:36 45.523898 -122.547513 12 1265ft 91kts
20-Dec-17 16:37 45.546434 -122.537594 11 894ft 83kts
20-Dec-17 16:38 45.567036 -122.532889 336 589ft 76kts
20-Dec-17 16:39 45.579175 -122.555869 299 203ft 73kts
20-Dec-17 16:40 45.586531 -122.574504 292 22ft 12kts
20-Dec-17 16:41 45.586529 -122.576074 200 22ft 0kts
20-Dec-17 16:42 45.585662 -122.576922 212 22ft 7kts
20-Dec-17 16:43 45.584965 -122.577813 294 22ft 0kts
20-Dec-17 16:44 45.584965 -122.577813 294 22ft 0kts

Navigation Log

Ident Type
Flight plan parsing failed, navigation log unavailable